Monday, December 5, 2016, 11:34 AM EST

KOXB, Ocean City Municipal Airport

Location: Berlin, MD, United States Lat: 38.317
Local Time: 11:34 AM EST (16:34 GMT) Lon: -75.117
Time Zone: US/Eastern Elev: 13 ft

Show me the last for .
Show Decoded

2016-12-05 10:53 METAR KOXB 051553Z AUTO 33005KT 9SM OVC003 08/07 A3001 RMK AO2 SLP160 T00780072
                 =
2016-12-05 10:50 METAR KOXB 051550Z AUTO 34006KT 9SM OVC003 08/07 A3001 RMK AO2 =
2016-12-05 10:16 METAR KOXB 051516Z AUTO 33007KT 10SM OVC004 08/07 A3001 RMK AO2 T00830072 =
2016-12-05 09:53 METAR KOXB 051453Z AUTO 32008KT 10SM OVC003 08/07 A3001 RMK AO2 SLP163 60000
                 T00780067 55001 =
2016-12-05 09:21 METAR KOXB 051421Z AUTO 33005KT 10SM BKN003 BKN055 07/06 A3002 RMK AO2 T00670061
                 =
2016-12-05 08:53 METAR KOXB 051353Z AUTO 33006KT 10SM SCT003 OVC055 07/06 A3001 RMK AO2 SLP162
                 T00670061 =
2016-12-05 08:34 METAR KOXB 051334Z AUTO 33005KT 10SM SCT003 OVC055 07/06 A3001 RMK AO2 T00670056
                 =
2016-12-05 07:53 METAR KOXB 051253Z AUTO 00000KT 10SM OVC039 07/06 A3000 RMK AO2 RAE11 SLP157
                 P0000 T00670061 =
2016-12-05 07:16 METAR KOXB 051216Z AUTO 00000KT 8SM SCT003 OVC044 06/06 A3001 RMK AO2 RAE11
                 P0000 T00610061 =
2016-12-05 07:02 METAR KOXB 051202Z AUTO 00000KT 4SM -RA BR BKN003 OVC046 06/06 A3001 RMK AO2
                 P0000 T00610056 =
2016-12-05 06:53 METAR KOXB 051153Z AUTO 00000KT 5SM -RA BR OVC004 06/06 A3002 RMK AO2 SLP165
                 P0004 60038 70043 T00610056 10078 20044 58006 =
2016-12-05 06:42 METAR KOXB 051142Z AUTO 32004KT 5SM -RA BR OVC004 06/06 A3003 RMK AO2 P0003
                 T00610056 =
2016-12-05 06:30 METAR KOXB 051130Z AUTO 32003KT 7SM -RA BKN006 OVC026 07/06 A3003 RMK AO2 P0003
                 T00670061 =
2016-12-05 06:18 METAR KOXB 051118Z AUTO 32003KT 5SM -RA BR SCT006 OVC026 07/06 A3003 RMK AO2
                 P0003 T00670061 =
2016-12-05 06:00 METAR KOXB 051100Z AUTO 29003KT 3SM -RA BR SCT006 SCT010 OVC030 07/06 A3003 RMK
                 AO2 P0001 T00670061 =
2016-12-05 05:53 METAR KOXB 051053Z AUTO 31004KT 3SM RA BR BKN006 BKN010 OVC019 07/06 A3004 RMK
                 AO2 SLP170 P0009 T00670061 TSNO =
2016-12-05 05:08 METAR KOXB 051008Z AUTO 28004KT 3SM RA BR BKN005 OVC011 07/07 A3003 RMK AO2 CIG
                 004V007 P0002 T00720067 =
2016-12-05 04:53 METAR KOXB 050953Z AUTO 22005KT 4SM -RA BR SCT007 OVC014 08/07 A3003 RMK AO2
                 SLP170 P0008 T00780067 =
2016-12-05 04:49 METAR KOXB 050949Z AUTO 22005KT 4SM -RA BR FEW007 OVC014 08/07 A3004 RMK AO2
                 P0008 =
2016-12-05 04:33 METAR KOXB 050933Z AUTO 21005KT 4SM RA BR OVC014 07/06 A3004 RMK AO2 P0006
                 T00720061 =
2016-12-05 03:53 METAR KOXB 050853Z AUTO VRB06KT 5SM RA BR BKN015 OVC021 07/06 A3004 RMK AO2
                 SLP170 P0007 60017 T00720056 56026 =
2016-12-05 03:31 METAR KOXB 050831Z AUTO 17006KT 6SM -RA BR SCT014 BKN021 OVC034 07/06 A3003 RMK
                 AO2 P0005 T00720056 =
2016-12-05 02:53 METAR KOXB 050753Z AUTO 15005KT 6SM -RA BR FEW014 OVC044 07/05 A3005 RMK AO2
                 SLP175 P0005 T00670050 =
2016-12-05 01:53 METAR KOXB 050653Z AUTO VRB05KT 6SM -RA BR OVC050 06/04 A3008 RMK AO2 SLP186
                 P0005 T00610039 =
2016-12-05 00:53 METAR KOXB 050553Z AUTO 00000KT 6SM -RA BR OVC049 04/04 A3011 RMK AO2 PRESFR
                 SLP197 P0003 60005 T00440039 10061 20044 58018 =
2016-12-04 23:53 METAR KOXB 050453Z AUTO 00000KT 9SM -RA SCT070 OVC085 04/03 A3014 RMK AO2 RAB02
                 SLP204 P0002 T00440028 400940017 =
2016-12-04 22:53 METAR KOXB 050353Z AUTO 25003KT 10SM OVC070 06/02 A3017 RMK AO2 SLP217 T00560017
                 =
2016-12-04 21:53 METAR KOXB 050253Z AUTO 25003KT 10SM BKN075 OVC100 06/02 A3017 RMK AO2 SLP215
                 T00560022 58010 =
2016-12-04 20:53 METAR KOXB 050153Z AUTO 25004KT 10SM OVC080 06/02 A3018 RMK AO2 SLP221 T00560022
                 =
2016-12-04 19:53 METAR KOXB 050053Z AUTO 00000KT 10SM CLR 05/01 A3019 RMK AO2 SLP223 T00500011 =
2016-12-04 18:53 METAR KOXB 042353Z AUTO 00000KT 10SM CLR 05/01 A3020 RMK AO2 SLP225 T00500011
                 10094 20044 56012 =
2016-12-04 17:53 METAR KOXB 042253Z AUTO 00000KT 10SM CLR 06/01 A3021 RMK AO2 SLP230 T00560011 =
2016-12-04 16:53 METAR KOXB 042153Z AUTO 00000KT 10SM CLR 06/01 A3022 RMK AO2 SLP233 T00610006 =
2016-12-04 15:53 METAR KOXB 042053Z AUTO 27003KT 10SM CLR 08/M01 A3023 RMK AO2 SLP237 T00781011
                 53004 =
2016-12-04 14:53 METAR KOXB 041953Z AUTO 32004KT 10SM CLR 08/M01 A3023 RMK AO2 SLP236 T00831011 =
2016-12-04 13:53 METAR KOXB 041853Z AUTO 30004KT 10SM CLR 08/M01 A3022 RMK AO2 SLP234 T00831006 =
2016-12-04 12:53 METAR KOXB 041753Z AUTO 30004KT 10SM CLR 08/M01 A3022 RMK AO2 SLP234 T00831006
                 10089 20017 56021 =
2016-12-04 11:53 METAR KOXB 041653Z AUTO 34005KT 10SM FEW034 08/00 A3024 RMK AO2 SLP238 T00830000
                 TSNO =

Support USWX by starting your Amazon purchase here.